sensor_id;sensor_type;location;lat;lon;timestamp;pressure;altitude;pressure_sealevel;temperature;humidity
57086;BME280;42964;42.910;23.792;2023-05-18T00:03:07;97180.28;;;12.46;100.00
57086;BME280;42964;42.910;23.792;2023-05-18T00:08:05;97169.84;;;12.46;100.00
57086;BME280;42964;42.910;23.792;2023-05-18T00:13:04;97181.78;;;12.58;100.00
57086;BME280;42964;42.910;23.792;2023-05-18T00:18:06;97182.53;;;12.64;100.00
57086;BME280;42964;42.910;23.792;2023-05-18T00:23:06;97192.13;;;12.62;100.00
57086;BME280;42964;42.910;23.792;2023-05-18T00:28:08;97181.72;;;12.62;100.00
57086;BME280;42964;42.910;23.792;2023-05-18T00:33:07;97183.47;;;12.62;100.00
57086;BME280;42964;42.910;23.792;2023-05-18T00:38:05;97158.44;;;12.53;100.00
57086;BME280;42964;42.910;23.792;2023-05-18T00:43:04;97185.09;;;12.67;100.00
57086;BME280;42964;42.910;23.792;2023-05-18T00:48:03;97177.22;;;12.70;100.00
57086;BME280;42964;42.910;23.792;2023-05-18T00:53:02;97185.09;;;12.67;100.00
57086;BME280;42964;42.910;23.792;2023-05-18T00:58:01;97180.84;;;12.63;100.00
57086;BME280;42964;42.910;23.792;2023-05-18T01:03:00;97167.09;;;12.55;100.00
57086;BME280;42964;42.910;23.792;2023-05-18T01:07:59;97181.78;;;12.58;100.00
57086;BME280;42964;42.910;23.792;2023-05-18T01:13:12;97192.34;;;12.51;100.00
57086;BME280;42964;42.910;23.792;2023-05-18T01:18:18;97191.50;;;12.49;100.00
57086;BME280;42964;42.910;23.792;2023-05-18T01:23:35;97195.00;;;12.47;100.00
57086;BME280;42964;42.910;23.792;2023-05-18T01:28:44;97183.75;;;12.46;100.00
57086;BME280;42964;42.910;23.792;2023-05-18T01:33:46;97189.75;;;12.50;100.00
57086;BME280;42964;42.910;23.792;2023-05-18T01:38:45;97187.00;;;12.58;100.00
57086;BME280;42964;42.910;23.792;2023-05-18T01:43:51;97185.97;;;12.66;100.00
57086;BME280;42964;42.910;23.792;2023-05-18T01:48:53;97154.22;;;12.49;100.00
57086;BME280;42964;42.910;23.792;2023-05-18T01:53:59;97131.13;;;12.29;100.00
57086;BME280;42964;42.910;23.792;2023-05-18T01:59:01;97194.69;;;12.64;100.00
57086;BME280;42964;42.910;23.792;2023-05-18T02:04:00;97200.94;;;12.55;100.00
57086;BME280;42964;42.910;23.792;2023-05-18T02:08:59;97210.78;;;12.38;100.00
57086;BME280;42964;42.910;23.792;2023-05-18T02:13:58;97174.09;;;11.99;100.00
57086;BME280;42964;42.910;23.792;2023-05-18T02:18:58;97212.03;;;12.14;100.00
57086;BME280;42964;42.910;23.792;2023-05-18T02:23:58;97221.75;;;11.99;100.00
57086;BME280;42964;42.910;23.792;2023-05-18T02:28:57;97236.44;;;12.03;100.00
57086;BME280;42964;42.910;23.792;2023-05-18T02:33:56;97233.63;;;12.17;100.00
57086;BME280;42964;42.910;23.792;2023-05-18T02:38:55;97214.66;;;12.10;100.00
57086;BME280;42964;42.910;23.792;2023-05-18T02:43:54;97235.38;;;12.17;100.00
57086;BME280;42964;42.910;23.792;2023-05-18T02:48:54;97233.53;;;12.23;100.00
57086;BME280;42964;42.910;23.792;2023-05-18T02:53:53;97243.84;;;12.33;100.00
57086;BME280;42964;42.910;23.792;2023-05-18T02:58:52;97241.25;;;12.29;100.00
57086;BME280;42964;42.910;23.792;2023-05-18T03:03:55;97252.56;;;12.28;100.00
57086;BME280;42964;42.910;23.792;2023-05-18T03:08:57;97256.97;;;12.20;100.00
57086;BME280;42964;42.910;23.792;2023-05-18T03:13:56;97248.28;;;12.23;100.00
57086;BME280;42964;42.910;23.792;2023-05-18T03:18:55;97256.84;;;12.31;100.00
57086;BME280;42964;42.910;23.792;2023-05-18T03:23:56;97276.06;;;12.19;100.00
57086;BME280;42964;42.910;23.792;2023-05-18T03:28:58;97283.16;;;12.11;100.00
57086;BME280;42964;42.910;23.792;2023-05-18T03:33:57;97288.56;;;11.97;100.00
57086;BME280;42964;42.910;23.792;2023-05-18T03:38:56;97283.41;;;11.93;100.00
57086;BME280;42964;42.910;23.792;2023-05-18T03:43:54;97280.91;;;11.85;100.00
57086;BME280;42964;42.910;23.792;2023-05-18T03:48:53;97297.16;;;12.01;100.00
57086;BME280;42964;42.910;23.792;2023-05-18T03:53:52;97300.66;;;11.98;100.00
57086;BME280;42964;42.910;23.792;2023-05-18T03:58:51;97296.44;;;11.89;100.00
57086;BME280;42964;42.910;23.792;2023-05-18T04:03:50;97305.06;;;11.92;100.00
57086;BME280;42964;42.910;23.792;2023-05-18T04:08:50;97227.03;;;11.31;100.00
57086;BME280;42964;42.910;23.792;2023-05-18T04:13:48;97311.59;;;11.57;100.00
57086;BME280;42964;42.910;23.792;2023-05-18T04:18:48;97328.88;;;11.59;100.00
57086;BME280;42964;42.910;23.792;2023-05-18T04:23:47;97330.59;;;11.62;100.00
57086;BME280;42964;42.910;23.792;2023-05-18T04:28:46;97311.56;;;11.58;100.00
57086;BME280;42964;42.910;23.792;2023-05-18T04:33:45;97340.91;;;11.66;100.00
57086;BME280;42964;42.910;23.792;2023-05-18T04:38:45;97338.31;;;11.68;100.00
57086;BME280;42964;42.910;23.792;2023-05-18T04:43:44;97248.13;;;11.05;100.00
57086;BME280;42964;42.910;23.792;2023-05-18T04:48:44;97239.34;;;11.15;100.00
57086;BME280;42964;42.910;23.792;2023-05-18T04:53:47;97308.28;;;11.44;100.00
57086;BME280;42964;42.910;23.792;2023-05-18T04:58:48;97363.34;;;11.75;100.00
57086;BME280;42964;42.910;23.792;2023-05-18T05:03:47;97373.09;;;11.55;100.00
57086;BME280;42964;42.910;23.792;2023-05-18T05:08:46;97386.88;;;11.64;100.00
57086;BME280;42964;42.910;23.792;2023-05-18T05:13:45;97390.31;;;11.66;100.00
57086;BME280;42964;42.910;23.792;2023-05-18T05:18:44;97402.44;;;11.69;100.00
57086;BME280;42964;42.910;23.792;2023-05-18T05:23:43;97399.94;;;11.60;100.00
57086;BME280;42964;42.910;23.792;2023-05-18T05:28:43;97403.47;;;11.51;100.00
57086;BME280;42964;42.910;23.792;2023-05-18T05:33:41;97418.22;;;11.48;100.00
57086;BME280;42964;42.910;23.792;2023-05-18T05:38:40;97417.50;;;11.35;100.00
57086;BME280;42964;42.910;23.792;2023-05-18T05:43:39;97416.66;;;11.34;100.00
57086;BME280;42964;42.910;23.792;2023-05-18T05:48:38;97422.66;;;11.41;100.00
57086;BME280;42964;42.910;23.792;2023-05-18T05:53:37;97419.97;;;11.47;100.00
57086;BME280;42964;42.910;23.792;2023-05-18T05:58:36;97425.72;;;11.75;100.00
57086;BME280;42964;42.910;23.792;2023-05-18T06:03:35;97431.22;;;11.49;100.00
57086;BME280;42964;42.910;23.792;2023-05-18T06:08:34;97432.91;;;11.52;100.00
57086;BME280;42964;42.910;23.792;2023-05-18T06:13:34;97444.03;;;11.66;100.00
57086;BME280;42964;42.910;23.792;2023-05-18T06:18:32;97447.56;;;11.62;100.00
57086;BME280;42964;42.910;23.792;2023-05-18T06:23:32;97450.91;;;11.70;100.00
57086;BME280;42964;42.910;23.792;2023-05-18T06:28:31;97456.06;;;11.76;100.00
57086;BME280;42964;42.910;23.792;2023-05-18T06:33:30;97463.06;;;11.66;100.00
57086;BME280;42964;42.910;23.792;2023-05-18T06:38:29;97467.31;;;11.78;100.00
57086;BME280;42964;42.910;23.792;2023-05-18T06:43:28;97471.63;;;11.79;100.00
57086;BME280;42964;42.910;23.792;2023-05-18T06:48:27;97485.66;;;11.63;100.00
57086;BME280;42964;42.910;23.792;2023-05-18T06:53:26;97491.75;;;11.59;100.00
57086;BME280;42964;42.910;23.792;2023-05-18T06:58:25;97488.97;;;11.79;100.00
57086;BME280;42964;42.910;23.792;2023-05-18T07:03:24;97494.13;;;11.83;100.00
57086;BME280;42964;42.910;23.792;2023-05-18T07:08:23;97508.81;;;11.86;100.00
57086;BME280;42964;42.910;23.792;2023-05-18T07:13:23;97508.59;;;12.07;100.00
57086;BME280;42964;42.910;23.792;2023-05-18T07:18:22;97515.16;;;12.42;100.00
57086;BME280;42964;42.910;23.792;2023-05-18T07:23:21;97520.94;;;12.64;100.00
57086;BME280;42964;42.910;23.792;2023-05-18T07:28:20;97525.84;;;12.89;100.00
57086;BME280;42964;42.910;23.792;2023-05-18T07:33:19;97532.56;;;13.04;100.00
57086;BME280;42964;42.910;23.792;2023-05-18T07:38:18;97539.34;;;13.15;100.00
57086;BME280;42964;42.910;23.792;2023-05-18T07:43:17;97545.09;;;13.38;100.00
57086;BME280;42964;42.910;23.792;2023-05-18T07:48:16;97545.72;;;13.56;100.00
57086;BME280;42964;42.910;23.792;2023-05-18T07:53:15;97552.25;;;13.81;100.00
57086;BME280;42964;42.910;23.792;2023-05-18T07:58:13;97550.78;;;13.66;100.00
57086;BME280;42964;42.910;23.792;2023-05-18T08:03:13;97563.75;;;13.67;100.00
57086;BME280;42964;42.910;23.792;2023-05-18T08:08:12;97566.75;;;13.97;100.00
57086;BME280;42964;42.910;23.792;2023-05-18T08:13:12;97571.97;;;13.95;100.00
57086;BME280;42964;42.910;23.792;2023-05-18T08:18:11;97562.50;;;13.91;100.00
57086;BME280;42964;42.910;23.792;2023-05-18T08:23:10;97578.78;;;14.06;100.00
57086;BME280;42964;42.910;23.792;2023-05-18T08:28:09;97589.25;;;14.03;100.00
57086;BME280;42964;42.910;23.792;2023-05-18T08:33:08;97593.53;;;14.07;100.00
57086;BME280;42964;42.910;23.792;2023-05-18T08:38:07;97595.91;;;14.19;100.00
57086;BME280;42964;42.910;23.792;2023-05-18T08:43:11;97596.41;;;14.39;99.33
57086;BME280;42964;42.910;23.792;2023-05-18T08:48:16;97595.31;;;14.51;97.74
57086;BME280;42964;42.910;23.792;2023-05-18T08:53:17;97603.66;;;14.73;95.30
57086;BME280;42964;42.910;23.792;2023-05-18T08:58:18;97611.09;;;14.92;97.11
57086;BME280;42964;42.910;23.792;2023-05-18T09:03:17;97621.03;;;14.74;93.56
57086;BME280;42964;42.910;23.792;2023-05-18T09:08:17;97562.03;;;14.62;96.63
57086;BME280;42964;42.910;23.792;2023-05-18T09:13:18;97607.41;;;15.02;92.25
57086;BME280;42964;42.910;23.792;2023-05-18T09:18:20;97620.97;;;15.19;92.94
57086;BME280;42964;42.910;23.792;2023-05-18T09:23:19;97624.00;;;15.40;93.28
57086;BME280;42964;42.910;23.792;2023-05-18T09:33:36;97627.16;;;15.54;90.94
57086;BME280;42964;42.910;23.792;2023-05-18T09:38:40;97622.88;;;15.52;88.79
57086;BME280;42964;42.910;23.792;2023-05-18T09:43:46;97631.13;;;15.33;86.00
57086;BME280;42964;42.910;23.792;2023-05-18T09:48:48;97632.47;;;15.51;90.24
57086;BME280;42964;42.910;23.792;2023-05-18T09:53:49;97608.44;;;15.34;88.60
57086;BME280;42964;42.910;23.792;2023-05-18T09:58:51;97636.78;;;15.54;86.58
57086;BME280;42964;42.910;23.792;2023-05-18T10:03:50;97637.19;;;15.34;86.34
57086;BME280;42964;42.910;23.792;2023-05-18T10:08:50;97638.31;;;15.23;87.12
57086;BME280;42964;42.910;23.792;2023-05-18T10:13:53;97639.53;;;15.06;85.04
57086;BME280;42964;42.910;23.792;2023-05-18T10:18:54;97643.13;;;15.01;85.74
57086;BME280;42964;42.910;23.792;2023-05-18T10:23:53;97646.69;;;15.38;86.13
57086;BME280;42964;42.910;23.792;2023-05-18T10:28:54;97638.34;;;15.61;87.90
57086;BME280;42964;42.910;23.792;2023-05-18T10:33:54;97645.16;;;16.05;87.49
57086;BME280;42964;42.910;23.792;2023-05-18T10:38:54;97643.50;;;16.01;82.42
57086;BME280;42964;42.910;23.792;2023-05-18T10:43:55;97652.72;;;15.82;86.43
57086;BME280;42964;42.910;23.792;2023-05-18T10:49:02;97643.34;;;15.72;84.03
57086;BME280;42964;42.910;23.792;2023-05-18T10:54:10;97648.72;;;15.64;83.72
57086;BME280;42964;42.910;23.792;2023-05-18T10:59:11;97646.13;;;15.64;81.82
57086;BME280;42964;42.910;23.792;2023-05-18T11:04:12;97607.59;;;15.32;83.90
57086;BME280;42964;42.910;23.792;2023-05-18T11:09:21;97678.91;;;15.40;83.94
57086;BME280;42964;42.910;23.792;2023-05-18T11:14:25;97618.25;;;14.82;86.36
57086;BME280;42964;42.910;23.792;2023-05-18T11:19:25;97674.41;;;15.06;85.03
57086;BME280;42964;42.910;23.792;2023-05-18T11:24:31;97689.41;;;14.47;81.05
57086;BME280;42964;42.910;23.792;2023-05-18T11:29:41;97687.38;;;14.13;85.83
57086;BME280;42964;42.910;23.792;2023-05-18T11:34:44;97694.19;;;13.64;85.56
57086;BME280;42964;42.910;23.792;2023-05-18T11:39:53;97705.75;;;13.43;86.64
57086;BME280;42964;42.910;23.792;2023-05-18T11:44:52;97704.16;;;13.33;88.20
57086;BME280;42964;42.910;23.792;2023-05-18T11:49:56;97701.56;;;13.31;90.21
57086;BME280;42964;42.910;23.792;2023-05-18T11:54:56;97721.13;;;13.65;93.09
57086;BME280;42964;42.910;23.792;2023-05-18T11:59:56;97724.19;;;13.94;88.99
57086;BME280;42964;42.910;23.792;2023-05-18T12:04:57;97729.47;;;13.90;87.44
57086;BME280;42964;42.910;23.792;2023-05-18T12:10:03;97732.00;;;13.94;89.65
57086;BME280;42964;42.910;23.792;2023-05-18T12:15:05;97743.09;;;14.09;88.95
57086;BME280;42964;42.910;23.792;2023-05-18T12:20:06;97745.84;;;13.99;85.88
57086;BME280;42964;42.910;23.792;2023-05-18T12:25:06;97745.31;;;13.76;88.13
57086;BME280;42964;42.910;23.792;2023-05-18T12:30:10;97746.81;;;13.92;91.66
57086;BME280;42964;42.910;23.792;2023-05-18T12:35:10;97726.16;;;13.77;89.96
57086;BME280;42964;42.910;23.792;2023-05-18T12:40:09;97757.13;;;14.02;87.03
57086;BME280;42964;42.910;23.792;2023-05-18T12:45:08;97759.41;;;14.23;91.10
57086;BME280;42964;42.910;23.792;2023-05-18T12:50:08;97755.00;;;14.27;89.09
57086;BME280;42964;42.910;23.792;2023-05-18T12:55:08;97756.44;;;14.46;93.85
57086;BME280;42964;42.910;23.792;2023-05-18T13:00:11;97691.41;;;14.31;90.39
57086;BME280;42964;42.910;23.792;2023-05-18T13:05:10;97746.69;;;15.07;91.86
57086;BME280;42964;42.910;23.792;2023-05-18T13:10:11;97731.50;;;14.81;84.69
57086;BME280;42964;42.910;23.792;2023-05-18T13:15:12;97735.81;;;14.82;89.56
57086;BME280;42964;42.910;23.792;2023-05-18T13:20:12;97729.78;;;15.25;90.58
57086;BME280;42964;42.910;23.792;2023-05-18T13:25:12;97735.34;;;15.50;86.23
57086;BME280;42964;42.910;23.792;2023-05-18T13:30:11;97743.06;;;15.14;86.37
57086;BME280;42964;42.910;23.792;2023-05-18T13:35:10;97749.38;;;15.02;85.32
57086;BME280;42964;42.910;23.792;2023-05-18T13:40:10;97746.34;;;15.24;86.26
57086;BME280;42964;42.910;23.792;2023-05-18T13:45:11;97751.38;;;15.33;82.73
57086;BME280;42964;42.910;23.792;2023-05-18T13:50:10;97759.84;;;15.46;84.15
57086;BME280;42964;42.910;23.792;2023-05-18T13:55:10;97757.81;;;15.60;79.37
57086;BME280;42964;42.910;23.792;2023-05-18T14:00:09;97755.06;;;15.66;81.50
57086;BME280;42964;42.910;23.792;2023-05-18T14:05:11;97705.63;;;15.54;80.42
57086;BME280;42964;42.910;23.792;2023-05-18T14:10:12;97752.25;;;16.16;82.66
57086;BME280;42964;42.910;23.792;2023-05-18T14:15:12;97752.22;;;16.54;82.12
57086;BME280;42964;42.910;23.792;2023-05-18T14:20:11;97727.13;;;16.43;77.25
57086;BME280;42964;42.910;23.792;2023-05-18T14:25:10;97736.09;;;15.97;78.37
57086;BME280;42964;42.910;23.792;2023-05-18T14:30:09;97738.00;;;15.49;77.38
57086;BME280;42964;42.910;23.792;2023-05-18T14:35:08;97757.06;;;15.54;78.97
57086;BME280;42964;42.910;23.792;2023-05-18T14:40:08;97745.50;;;15.23;77.32
57086;BME280;42964;42.910;23.792;2023-05-18T14:45:07;97740.72;;;15.44;75.98
57086;BME280;42964;42.910;23.792;2023-05-18T14:50:07;97703.59;;;15.27;78.44
57086;BME280;42964;42.910;23.792;2023-05-18T14:55:06;97748.59;;;15.41;73.68
57086;BME280;42964;42.910;23.792;2023-05-18T15:00:06;97745.88;;;15.47;74.41
57086;BME280;42964;42.910;23.792;2023-05-18T15:05:05;97748.97;;;15.64;78.07
57086;BME280;42964;42.910;23.792;2023-05-18T15:10:06;97704.69;;;15.57;79.80
57086;BME280;42964;42.910;23.792;2023-05-18T15:15:05;97727.53;;;15.91;80.62
57086;BME280;42964;42.910;23.792;2023-05-18T15:20:05;97725.28;;;16.13;81.93
57086;BME280;42964;42.910;23.792;2023-05-18T15:25:05;97737.78;;;16.37;78.78
57086;BME280;42964;42.910;23.792;2023-05-18T15:30:05;97681.44;;;16.21;78.64
57086;BME280;42964;42.910;23.792;2023-05-18T15:35:09;97667.38;;;16.25;75.96
57086;BME280;42964;42.910;23.792;2023-05-18T15:40:08;97732.88;;;16.58;72.76
57086;BME280;42964;42.910;23.792;2023-05-18T15:45:07;97741.19;;;16.39;75.09
57086;BME280;42964;42.910;23.792;2023-05-18T15:50:07;97718.09;;;16.21;71.87
57086;BME280;42964;42.910;23.792;2023-05-18T15:55:06;97729.38;;;16.23;76.81
57086;BME280;42964;42.910;23.792;2023-05-18T16:00:07;97735.00;;;16.43;78.34
57086;BME280;42964;42.910;23.792;2023-05-18T16:05:07;97752.13;;;16.57;76.93
57086;BME280;42964;42.910;23.792;2023-05-18T16:10:06;97748.88;;;16.47;78.73
57086;BME280;42964;42.910;23.792;2023-05-18T16:15:06;97715.81;;;16.07;78.23
57086;BME280;42964;42.910;23.792;2023-05-18T16:20:05;97742.75;;;16.12;76.03
57086;BME280;42964;42.910;23.792;2023-05-18T16:25:04;97767.19;;;16.11;77.91
57086;BME280;42964;42.910;23.792;2023-05-18T16:30:04;97771.03;;;15.95;79.09
57086;BME280;42964;42.910;23.792;2023-05-18T16:35:03;97772.06;;;15.87;81.61
57086;BME280;42964;42.910;23.792;2023-05-18T16:40:03;97777.47;;;15.80;82.99
57086;BME280;42964;42.910;23.792;2023-05-18T16:45:03;97778.59;;;15.66;84.11
57086;BME280;42964;42.910;23.792;2023-05-18T16:50:02;97778.94;;;15.51;84.53
57086;BME280;42964;42.910;23.792;2023-05-18T16:55:01;97775.81;;;15.32;85.92
57086;BME280;42964;42.910;23.792;2023-05-18T17:00:01;97721.72;;;14.91;86.88
57086;BME280;42964;42.910;23.792;2023-05-18T17:05:00;97762.41;;;15.04;88.56
57086;BME280;42964;42.910;23.792;2023-05-18T17:09:59;97808.63;;;15.00;88.15
57086;BME280;42964;42.910;23.792;2023-05-18T17:14:58;97808.97;;;14.82;89.17
57086;BME280;42964;42.910;23.792;2023-05-18T17:19:57;97815.28;;;14.67;90.26
57086;BME280;42964;42.910;23.792;2023-05-18T17:24:56;97768.97;;;14.24;90.69
57086;BME280;42964;42.910;23.792;2023-05-18T17:29:54;97813.16;;;14.35;91.51
57086;BME280;42964;42.910;23.792;2023-05-18T17:34:53;97824.59;;;14.26;91.29
57086;BME280;42964;42.910;23.792;2023-05-18T17:39:52;97843.84;;;14.19;91.40
57086;BME280;42964;42.910;23.792;2023-05-18T17:44:51;97848.28;;;14.14;92.42
57086;BME280;42964;42.910;23.792;2023-05-18T17:49:50;97855.41;;;14.01;92.21
57086;BME280;42964;42.910;23.792;2023-05-18T17:54:49;97846.03;;;13.86;93.01
57086;BME280;42964;42.910;23.792;2023-05-18T17:59:49;97816.75;;;13.64;92.98
57086;BME280;42964;42.910;23.792;2023-05-18T18:04:48;97831.56;;;13.62;94.04
57086;BME280;42964;42.910;23.792;2023-05-18T18:09:47;97830.81;;;13.49;92.89
57086;BME280;42964;42.910;23.792;2023-05-18T18:14:46;97844.00;;;13.32;94.11
57086;BME280;42964;42.910;23.792;2023-05-18T18:19:45;97838.78;;;13.34;94.62
57086;BME280;42964;42.910;23.792;2023-05-18T18:24:45;97849.22;;;13.35;95.09
57086;BME280;42964;42.910;23.792;2023-05-18T18:29:44;97841.41;;;13.34;95.57
57086;BME280;42964;42.910;23.792;2023-05-18T18:34:43;97694.69;;;12.45;95.54
57086;BME280;42964;42.910;23.792;2023-05-18T18:39:42;97854.47;;;13.31;95.90
57086;BME280;42964;42.910;23.792;2023-05-18T18:44:41;97845.13;;;13.08;95.50
57086;BME280;42964;42.910;23.792;2023-05-18T18:49:40;97858.97;;;13.17;96.27
57086;BME280;42964;42.910;23.792;2023-05-18T18:54:39;97859.78;;;13.19;96.84
57086;BME280;42964;42.910;23.792;2023-05-18T18:59:38;97878.91;;;13.19;96.31
57086;BME280;42964;42.910;23.792;2023-05-18T19:04:37;97866.88;;;13.06;95.87
57086;BME280;42964;42.910;23.792;2023-05-18T19:09:35;97872.97;;;13.03;96.57
57086;BME280;42964;42.910;23.792;2023-05-18T19:14:34;97877.34;;;12.98;96.88
57086;BME280;42964;42.910;23.792;2023-05-18T19:19:33;97886.88;;;12.99;97.17
57086;BME280;42964;42.910;23.792;2023-05-18T19:24:34;97855.91;;;12.68;97.19
57086;BME280;42964;42.910;23.792;2023-05-18T19:29:33;97887.03;;;12.81;97.75
57086;BME280;42964;42.910;23.792;2023-05-18T19:34:34;97890.53;;;12.80;98.13
57086;BME280;42964;42.910;23.792;2023-05-18T19:39:33;97884.47;;;12.79;98.56
57086;BME280;42964;42.910;23.792;2023-05-18T19:44:32;97897.50;;;12.78;98.10
57086;BME280;42964;42.910;23.792;2023-05-18T19:49:31;97913.09;;;12.78;97.72
57086;BME280;42964;42.910;23.792;2023-05-18T19:54:30;97914.03;;;12.70;97.48
57086;BME280;42964;42.910;23.792;2023-05-18T19:59:29;97854.34;;;12.43;97.59
57086;BME280;42964;42.910;23.792;2023-05-18T20:04:28;97909.69;;;12.72;97.66
57086;BME280;42964;42.910;23.792;2023-05-18T20:09:27;97908.81;;;12.70;96.47
57086;BME280;42964;42.910;23.792;2023-05-18T20:14:27;97908.88;;;12.63;96.85
57086;BME280;42964;42.910;23.792;2023-05-18T20:19:26;97911.56;;;12.46;96.33
57086;BME280;42964;42.910;23.792;2023-05-18T20:24:25;97915.03;;;12.48;96.61
57086;BME280;42964;42.910;23.792;2023-05-18T20:29:23;97934.19;;;12.38;96.00
57086;BME280;42964;42.910;23.792;2023-05-18T20:34:23;97933.34;;;12.29;96.57
57086;BME280;42964;42.910;23.792;2023-05-18T20:39:21;97931.63;;;12.30;97.30
57086;BME280;42964;42.910;23.792;2023-05-18T20:44:20;97877.97;;;11.98;98.01
57086;BME280;42964;42.910;23.792;2023-05-18T20:49:21;97926.44;;;12.18;97.86
57086;BME280;42964;42.910;23.792;2023-05-18T20:54:22;97933.34;;;12.25;97.69
57086;BME280;42964;42.910;23.792;2023-05-18T20:59:21;97930.81;;;12.08;98.23
57086;BME280;42964;42.910;23.792;2023-05-18T21:04:20;97932.59;;;12.00;98.43
57086;BME280;42964;42.910;23.792;2023-05-18T21:09:19;97935.25;;;11.86;99.03
57086;BME280;42964;42.910;23.792;2023-05-18T21:14:18;97935.22;;;11.91;99.41
57086;BME280;42964;42.910;23.792;2023-05-18T21:19:17;97944.75;;;11.96;99.12
57086;BME280;42964;42.910;23.792;2023-05-18T21:24:15;97934.31;;;12.01;98.69
57086;BME280;42964;42.910;23.792;2023-05-18T21:29:14;97879.81;;;11.73;99.15
57086;BME280;42964;42.910;23.792;2023-05-18T21:34:13;97919.59;;;11.98;99.55
57086;BME280;42964;42.910;23.792;2023-05-18T21:39:14;97936.06;;;12.02;99.59
57086;BME280;42964;42.910;23.792;2023-05-18T21:44:12;97938.66;;;12.02;99.52
57086;BME280;42964;42.910;23.792;2023-05-18T21:49:11;97929.97;;;12.04;99.99
57086;BME280;42964;42.910;23.792;2023-05-18T21:54:10;97925.66;;;12.06;100.00
57086;BME280;42964;42.910;23.792;2023-05-18T21:59:09;97903.16;;;11.92;100.00
57086;BME280;42964;42.910;23.792;2023-05-18T22:04:08;97923.88;;;12.10;99.68
57086;BME280;42964;42.910;23.792;2023-05-18T22:09:07;97923.00;;;12.13;99.87
57086;BME280;42964;42.910;23.792;2023-05-18T22:14:06;97927.31;;;12.15;99.52
57086;BME280;42964;42.910;23.792;2023-05-18T22:19:05;97913.56;;;11.82;99.29
57086;BME280;42964;42.910;23.792;2023-05-18T22:24:04;97935.28;;;11.66;100.00
57086;BME280;42964;42.910;23.792;2023-05-18T22:29:03;97933.63;;;11.43;100.00
57086;BME280;42964;42.910;23.792;2023-05-18T22:34:02;97931.03;;;11.31;100.00
57086;BME280;42964;42.910;23.792;2023-05-18T22:39:01;97919.75;;;11.43;100.00
57086;BME280;42964;42.910;23.792;2023-05-18T22:44:00;97919.72;;;11.63;100.00
57086;BME280;42964;42.910;23.792;2023-05-18T22:48:59;97916.25;;;11.61;100.00
57086;BME280;42964;42.910;23.792;2023-05-18T22:53:58;97922.28;;;11.75;100.00
57086;BME280;42964;42.910;23.792;2023-05-18T22:58:57;97921.41;;;11.79;100.00
57086;BME280;42964;42.910;23.792;2023-05-18T23:03:56;97917.91;;;11.82;100.00
57086;BME280;42964;42.910;23.792;2023-05-18T23:08:54;97912.72;;;11.83;100.00
57086;BME280;42964;42.910;23.792;2023-05-18T23:13:54;97910.13;;;11.80;100.00
57086;BME280;42964;42.910;23.792;2023-05-18T23:18:53;97904.06;;;11.80;99.63
57086;BME280;42964;42.910;23.792;2023-05-18T23:23:51;97906.69;;;11.66;99.57
57086;BME280;42964;42.910;23.792;2023-05-18T23:28:52;97899.78;;;11.65;100.00
57086;BME280;42964;42.910;23.792;2023-05-18T23:33:51;97897.19;;;11.65;100.00
57086;BME280;42964;42.910;23.792;2023-05-18T23:38:50;97888.50;;;11.66;100.00
57086;BME280;42964;42.910;23.792;2023-05-18T23:43:49;97891.13;;;11.63;100.00
57086;BME280;42964;42.910;23.792;2023-05-18T23:48:49;97885.06;;;11.56;100.00
57086;BME280;42964;42.910;23.792;2023-05-18T23:53:50;97868.59;;;11.62;100.00
57086;BME280;42964;42.910;23.792;2023-05-18T23:58:50;97867.72;;;11.66;100.00
